sensor_id;sensor_type;location;lat;lon;timestamp;pressure;altitude;pressure_sealevel;temperature;humidity
54042;BME280;41156;51.508;5.406;2023-09-19T00:02:07;100670.50;;;15.04;100.00
54042;BME280;41156;51.508;5.406;2023-09-19T00:05:08;100671.31;;;15.05;100.00
54042;BME280;41156;51.508;5.406;2023-09-19T00:08:09;100671.56;;;15.03;100.00
54042;BME280;41156;51.508;5.406;2023-09-19T00:11:10;100673.13;;;14.99;100.00
54042;BME280;41156;51.508;5.406;2023-09-19T00:14:11;100683.78;;;15.01;100.00
54042;BME280;41156;51.508;5.406;2023-09-19T00:17:14;100678.25;;;14.95;100.00
54042;BME280;41156;51.508;5.406;2023-09-19T00:20:16;100685.34;;;14.96;100.00
54042;BME280;41156;51.508;5.406;2023-09-19T00:23:17;100686.66;;;14.94;100.00
54042;BME280;41156;51.508;5.406;2023-09-19T00:26:19;100682.53;;;14.91;100.00
54042;BME280;41156;51.508;5.406;2023-09-19T00:29:21;100699.09;;;14.90;100.00
54042;BME280;41156;51.508;5.406;2023-09-19T00:32:23;100699.84;;;14.85;100.00
54042;BME280;41156;51.508;5.406;2023-09-19T00:35:23;100707.19;;;14.85;100.00
54042;BME280;41156;51.508;5.406;2023-09-19T00:38:24;100708.50;;;14.82;100.00
54042;BME280;41156;51.508;5.406;2023-09-19T00:41:27;100710.06;;;14.78;100.00
54042;BME280;41156;51.508;5.406;2023-09-19T00:44:30;100710.31;;;14.76;100.00
54042;BME280;41156;51.508;5.406;2023-09-19T00:47:30;100716.81;;;14.75;100.00
54042;BME280;41156;51.508;5.406;2023-09-19T00:50:31;100715.66;;;14.71;100.00
54042;BME280;41156;51.508;5.406;2023-09-19T00:53:32;100722.75;;;14.72;100.00
54042;BME280;41156;51.508;5.406;2023-09-19T00:56:34;100724.88;;;14.70;100.00
54042;BME280;41156;51.508;5.406;2023-09-19T00:59:35;100720.53;;;14.69;100.00
54042;BME280;41156;51.508;5.406;2023-09-19T01:02:35;100733.56;;;14.67;100.00
54042;BME280;41156;51.508;5.406;2023-09-19T01:05:36;100735.44;;;14.67;100.00
54042;BME280;41156;51.508;5.406;2023-09-19T01:08:36;100730.47;;;14.64;100.00
54042;BME280;41156;51.508;5.406;2023-09-19T01:11:43;100742.69;;;14.61;100.00
54042;BME280;41156;51.508;5.406;2023-09-19T01:15:18;100743.94;;;14.58;100.00
54042;BME280;41156;51.508;5.406;2023-09-19T01:18:25;100740.91;;;14.55;100.00
54042;BME280;41156;51.508;5.406;2023-09-19T01:21:29;100756.63;;;14.53;100.00
54042;BME280;41156;51.508;5.406;2023-09-19T01:28:06;100752.75;;;14.49;100.00
54042;BME280;41156;51.508;5.406;2023-09-19T01:31:10;100740.94;;;14.43;100.00
54042;BME280;41156;51.508;5.406;2023-09-19T01:34:11;100757.25;;;14.43;100.00
54042;BME280;41156;51.508;5.406;2023-09-19T01:37:11;100764.28;;;14.39;100.00
54042;BME280;41156;51.508;5.406;2023-09-19T01:40:14;100765.56;;;14.36;100.00
54042;BME280;41156;51.508;5.406;2023-09-19T01:43:21;100765.22;;;14.33;100.00
54042;BME280;41156;51.508;5.406;2023-09-19T01:46:32;100777.16;;;14.32;100.00
54042;BME280;41156;51.508;5.406;2023-09-19T01:49:44;100769.25;;;14.30;100.00
54042;BME280;41156;51.508;5.406;2023-09-19T01:56:42;100767.00;;;14.27;100.00
54042;BME280;41156;51.508;5.406;2023-09-19T01:59:50;100774.34;;;14.27;100.00
54042;BME280;41156;51.508;5.406;2023-09-19T02:02:52;100767.28;;;14.25;100.00
54042;BME280;41156;51.508;5.406;2023-09-19T02:05:54;100769.38;;;14.23;100.00
54042;BME280;41156;51.508;5.406;2023-09-19T02:08:55;100766.91;;;14.22;100.00
54042;BME280;41156;51.508;5.406;2023-09-19T02:11:55;100772.34;;;14.22;100.00
54042;BME280;41156;51.508;5.406;2023-09-19T02:14:56;100765.25;;;14.21;100.00
54042;BME280;41156;51.508;5.406;2023-09-19T02:17:57;100771.19;;;14.18;100.00
54042;BME280;41156;51.508;5.406;2023-09-19T02:20:59;100773.31;;;14.16;100.00
54042;BME280;41156;51.508;5.406;2023-09-19T02:24:00;100771.66;;;14.15;100.00
54042;BME280;41156;51.508;5.406;2023-09-19T02:27:00;100777.56;;;14.12;100.00
54042;BME280;41156;51.508;5.406;2023-09-19T02:30:05;100774.50;;;14.08;100.00
54042;BME280;41156;51.508;5.406;2023-09-19T02:33:06;100776.41;;;14.07;100.00
54042;BME280;41156;51.508;5.406;2023-09-19T02:36:06;100785.28;;;14.03;100.00
54042;BME280;41156;51.508;5.406;2023-09-19T02:39:07;100782.56;;;14.03;100.00
54042;BME280;41156;51.508;5.406;2023-09-19T02:42:08;100783.03;;;14.00;100.00
54042;BME280;41156;51.508;5.406;2023-09-19T02:45:09;100785.41;;;13.96;100.00
54042;BME280;41156;51.508;5.406;2023-09-19T02:48:09;100782.09;;;13.94;100.00
54042;BME280;41156;51.508;5.406;2023-09-19T02:51:11;100786.34;;;13.90;100.00
54042;BME280;41156;51.508;5.406;2023-09-19T02:54:11;100788.13;;;13.84;100.00
54042;BME280;41156;51.508;5.406;2023-09-19T02:57:12;100787.31;;;13.84;100.00
54042;BME280;41156;51.508;5.406;2023-09-19T03:00:14;100793.81;;;13.83;100.00
54042;BME280;41156;51.508;5.406;2023-09-19T03:03:15;100791.78;;;13.78;100.00
54042;BME280;41156;51.508;5.406;2023-09-19T03:06:19;100804.78;;;13.76;100.00
54042;BME280;41156;51.508;5.406;2023-09-19T03:09:20;100793.13;;;13.76;100.00
54042;BME280;41156;51.508;5.406;2023-09-19T03:12:20;100795.22;;;13.74;100.00
54042;BME280;41156;51.508;5.406;2023-09-19T03:15:21;100792.50;;;13.74;100.00
54042;BME280;41156;51.508;5.406;2023-09-19T03:18:21;100792.50;;;13.74;100.00
54042;BME280;41156;51.508;5.406;2023-09-19T03:21:23;100788.38;;;13.71;100.00
54042;BME280;41156;51.508;5.406;2023-09-19T03:24:24;100793.81;;;13.71;100.00
54042;BME280;41156;51.508;5.406;2023-09-19T03:27:24;100805.16;;;13.68;100.00
54042;BME280;41156;51.508;5.406;2023-09-19T03:30:24;100792.16;;;13.70;100.00
54042;BME280;41156;51.508;5.406;2023-09-19T03:33:25;100792.63;;;13.67;100.00
54042;BME280;41156;51.508;5.406;2023-09-19T03:36:25;100786.38;;;13.66;100.00
54042;BME280;41156;51.508;5.406;2023-09-19T03:39:28;100791.81;;;13.66;100.00
54042;BME280;41156;51.508;5.406;2023-09-19T03:42:28;100785.91;;;13.69;100.00
54042;BME280;41156;51.508;5.406;2023-09-19T03:45:28;100785.56;;;13.66;100.00
54042;BME280;41156;51.508;5.406;2023-09-19T03:48:29;100781.41;;;13.63;100.00
54042;BME280;41156;51.508;5.406;2023-09-19T03:51:29;100779.53;;;13.64;100.00
54042;BME280;41156;51.508;5.406;2023-09-19T03:54:29;100774.69;;;13.66;100.00
54042;BME280;41156;51.508;5.406;2023-09-19T03:57:30;100775.50;;;13.66;100.00
54042;BME280;41156;51.508;5.406;2023-09-19T04:00:30;100770.66;;;13.68;100.00
54042;BME280;41156;51.508;5.406;2023-09-19T04:03:31;100781.28;;;13.70;100.00
54042;BME280;41156;51.508;5.406;2023-09-19T04:06:45;100778.09;;;13.73;100.00
54042;BME280;41156;51.508;5.406;2023-09-19T04:09:45;100783.31;;;13.75;100.00
54042;BME280;41156;51.508;5.406;2023-09-19T04:12:53;100782.47;;;13.74;100.00
54042;BME280;41156;51.508;5.406;2023-09-19T04:15:53;100780.81;;;13.73;100.00
54042;BME280;41156;51.508;5.406;2023-09-19T04:18:53;100782.94;;;13.71;100.00
54042;BME280;41156;51.508;5.406;2023-09-19T04:21:54;100790.88;;;13.73;100.00
54042;BME280;41156;51.508;5.406;2023-09-19T04:24:54;100801.72;;;13.73;100.00
54042;BME280;41156;51.508;5.406;2023-09-19T04:27:54;100805.50;;;13.72;100.00
54042;BME280;41156;51.508;5.406;2023-09-19T04:30:55;100811.75;;;13.72;100.00
54042;BME280;41156;51.508;5.406;2023-09-19T04:33:55;100814.72;;;13.71;100.00
54042;BME280;41156;51.508;5.406;2023-09-19T04:36:56;100822.25;;;13.68;100.00
54042;BME280;41156;51.508;5.406;2023-09-19T04:39:58;100825.81;;;13.69;100.00
54042;BME280;41156;51.508;5.406;2023-09-19T04:42:58;100836.69;;;13.69;100.00
54042;BME280;41156;51.508;5.406;2023-09-19T04:45:59;100841.63;;;13.72;100.00
54042;BME280;41156;51.508;5.406;2023-09-19T04:49:01;100847.44;;;13.76;100.00
54042;BME280;41156;51.508;5.406;2023-09-19T04:52:02;100850.13;;;13.76;100.00
54042;BME280;41156;51.508;5.406;2023-09-19T04:55:03;100856.75;;;13.80;100.00
54042;BME280;41156;51.508;5.406;2023-09-19T04:58:03;100850.25;;;13.81;100.00
54042;BME280;41156;51.508;5.406;2023-09-19T05:01:04;100865.47;;;13.82;100.00
54042;BME280;41156;51.508;5.406;2023-09-19T05:04:04;100855.47;;;13.82;100.00
54042;BME280;41156;51.508;5.406;2023-09-19T05:07:05;100861.69;;;13.83;100.00
54042;BME280;41156;51.508;5.406;2023-09-19T05:10:06;100863.59;;;13.82;100.00
54042;BME280;41156;51.508;5.406;2023-09-19T05:13:07;100863.84;;;13.81;100.00
54042;BME280;41156;51.508;5.406;2023-09-19T05:16:07;100851.31;;;13.80;100.00
54042;BME280;41156;51.508;5.406;2023-09-19T05:19:10;100863.50;;;13.77;100.00
54042;BME280;41156;51.508;5.406;2023-09-19T05:22:12;100869.72;;;13.78;100.00
54042;BME280;41156;51.508;5.406;2023-09-19T05:25:12;100863.50;;;13.77;100.00
54042;BME280;41156;51.508;5.406;2023-09-19T05:28:17;100874.34;;;13.77;100.00
54042;BME280;41156;51.508;5.406;2023-09-19T05:31:17;100871.63;;;13.77;100.00
54042;BME280;41156;51.508;5.406;2023-09-19T05:34:17;100870.78;;;13.77;100.00
54042;BME280;41156;51.508;5.406;2023-09-19T05:37:17;100863.22;;;13.79;100.00
54042;BME280;41156;51.508;5.406;2023-09-19T05:40:19;100864.66;;;13.81;100.00
54042;BME280;41156;51.508;5.406;2023-09-19T05:43:19;100880.47;;;13.84;100.00
54042;BME280;41156;51.508;5.406;2023-09-19T05:46:19;100884.25;;;13.83;100.00
54042;BME280;41156;51.508;5.406;2023-09-19T05:49:20;100872.09;;;13.86;100.00
54042;BME280;41156;51.508;5.406;2023-09-19T05:52:21;100872.09;;;13.86;100.00
54042;BME280;41156;51.508;5.406;2023-09-19T05:55:22;100868.91;;;13.89;100.00
54042;BME280;41156;51.508;5.406;2023-09-19T05:58:25;100854.50;;;13.88;100.00
54042;BME280;41156;51.508;5.406;2023-09-19T06:01:25;100854.84;;;13.92;100.00
54042;BME280;41156;51.508;5.406;2023-09-19T06:04:25;100863.59;;;13.94;100.00
54042;BME280;41156;51.508;5.406;2023-09-19T06:07:25;100863.13;;;13.97;100.00
54042;BME280;41156;51.508;5.406;2023-09-19T06:10:27;100869.16;;;13.99;100.00
54042;BME280;41156;51.508;5.406;2023-09-19T06:13:32;100867.00;;;14.01;100.00
54042;BME280;41156;51.508;5.406;2023-09-19T06:16:33;100867.00;;;14.01;100.00
54042;BME280;41156;51.508;5.406;2023-09-19T06:19:34;100874.94;;;14.03;100.00
54042;BME280;41156;51.508;5.406;2023-09-19T06:22:34;100878.00;;;14.06;100.00
54042;BME280;41156;51.508;5.406;2023-09-19T06:25:38;100887.56;;;14.09;100.00
54042;BME280;41156;51.508;5.406;2023-09-19T06:28:40;100881.28;;;14.09;100.00
54042;BME280;41156;51.508;5.406;2023-09-19T06:31:41;100895.25;;;14.12;100.00
54042;BME280;41156;51.508;5.406;2023-09-19T06:34:42;100901.28;;;14.14;100.00
54042;BME280;41156;51.508;5.406;2023-09-19T06:37:43;100902.91;;;14.15;100.00
54042;BME280;41156;51.508;5.406;2023-09-19T06:40:44;100903.28;;;14.19;100.00
54042;BME280;41156;51.508;5.406;2023-09-19T06:43:44;100896.28;;;14.23;100.00
54042;BME280;41156;51.508;5.406;2023-09-19T06:46:44;100902.06;;;14.27;100.00
54042;BME280;41156;51.508;5.406;2023-09-19T06:49:46;100906.00;;;14.31;100.00
54042;BME280;41156;51.508;5.406;2023-09-19T06:52:52;100911.78;;;14.34;100.00
54042;BME280;41156;51.508;5.406;2023-09-19T06:55:53;100909.16;;;14.39;100.00
54042;BME280;41156;51.508;5.406;2023-09-19T06:58:54;100913.03;;;14.43;100.00
54042;BME280;41156;51.508;5.406;2023-09-19T07:01:54;100899.31;;;14.50;100.00
54042;BME280;41156;51.508;5.406;2023-09-19T07:04:55;100900.84;;;14.58;100.00
54042;BME280;41156;51.508;5.406;2023-09-19T07:07:55;100907.97;;;14.59;100.00
54042;BME280;41156;51.508;5.406;2023-09-19T07:10:56;100909.72;;;14.65;100.00
54042;BME280;41156;51.508;5.406;2023-09-19T07:13:57;100911.63;;;14.65;100.00
54042;BME280;41156;51.508;5.406;2023-09-19T07:16:58;100919.31;;;14.68;100.00
54042;BME280;41156;51.508;5.406;2023-09-19T07:20:00;100921.06;;;14.74;100.00
54042;BME280;41156;51.508;5.406;2023-09-19T07:23:00;100918.47;;;14.79;100.00
54042;BME280;41156;51.508;5.406;2023-09-19T07:26:01;100913.69;;;14.86;100.00
54042;BME280;41156;51.508;5.406;2023-09-19T07:29:01;100914.03;;;14.90;100.00
54042;BME280;41156;51.508;5.406;2023-09-19T07:32:05;100908.44;;;14.96;100.00
54042;BME280;41156;51.508;5.406;2023-09-19T07:35:06;100903.13;;;15.18;100.00
54042;BME280;41156;51.508;5.406;2023-09-19T07:38:07;100904.19;;;15.46;100.00
54042;BME280;41156;51.508;5.406;2023-09-19T07:41:08;100905.63;;;15.83;100.00
54042;BME280;41156;51.508;5.406;2023-09-19T07:44:11;100905.94;;;16.03;100.00
54042;BME280;41156;51.508;5.406;2023-09-19T07:47:11;100912.03;;;16.27;100.00
54042;BME280;41156;51.508;5.406;2023-09-19T07:50:15;100919.91;;;16.46;100.00
54042;BME280;41156;51.508;5.406;2023-09-19T07:53:16;100912.41;;;16.58;100.00
54042;BME280;41156;51.508;5.406;2023-09-19T07:56:18;100921.25;;;16.65;100.00
54042;BME280;41156;51.508;5.406;2023-09-19T07:59:20;100923.53;;;16.74;100.00
54042;BME280;41156;51.508;5.406;2023-09-19T08:02:20;100923.59;;;16.79;100.00
54042;BME280;41156;51.508;5.406;2023-09-19T08:05:22;100929.25;;;16.94;100.00
54042;BME280;41156;51.508;5.406;2023-09-19T08:08:23;100921.19;;;17.05;100.00
54042;BME280;41156;51.508;5.406;2023-09-19T08:11:23;100925.13;;;17.14;100.00
54042;BME280;41156;51.508;5.406;2023-09-19T08:14:24;100931.53;;;17.02;100.00
54042;BME280;41156;51.508;5.406;2023-09-19T08:17:26;100934.47;;;16.96;100.00
54042;BME280;41156;51.508;5.406;2023-09-19T08:20:26;100921.75;;;17.07;100.00
54042;BME280;41156;51.508;5.406;2023-09-19T08:23:26;100929.31;;;17.27;100.00
54042;BME280;41156;51.508;5.406;2023-09-19T08:26:27;100920.16;;;17.38;100.00
54042;BME280;41156;51.508;5.406;2023-09-19T08:29:28;100922.97;;;17.48;100.00
54042;BME280;41156;51.508;5.406;2023-09-19T08:32:29;100918.91;;;17.51;100.00
54042;BME280;41156;51.508;5.406;2023-09-19T08:35:30;100925.06;;;17.68;100.00
54042;BME280;41156;51.508;5.406;2023-09-19T08:38:34;100926.13;;;17.62;100.00
54042;BME280;41156;51.508;5.406;2023-09-19T08:41:35;100921.91;;;17.49;100.00
54042;BME280;41156;51.508;5.406;2023-09-19T08:44:37;100919.47;;;17.53;100.00
54042;BME280;41156;51.508;5.406;2023-09-19T08:47:45;100929.84;;;17.51;100.00
54042;BME280;41156;51.508;5.406;2023-09-19T08:50:54;100917.56;;;17.53;100.00
54042;BME280;41156;51.508;5.406;2023-09-19T08:54:03;100925.25;;;17.56;100.00
54042;BME280;41156;51.508;5.406;2023-09-19T08:57:08;100924.69;;;17.54;100.00
54042;BME280;41156;51.508;5.406;2023-09-19T09:00:11;100939.53;;;17.64;100.00
54042;BME280;41156;51.508;5.406;2023-09-19T09:03:16;100923.78;;;17.76;100.00
54042;BME280;41156;51.508;5.406;2023-09-19T09:06:20;100918.16;;;17.88;100.00
54042;BME280;41156;51.508;5.406;2023-09-19T09:09:20;100918.19;;;17.93;100.00
54042;BME280;41156;51.508;5.406;2023-09-19T09:12:21;100917.44;;;18.03;100.00
54042;BME280;41156;51.508;5.406;2023-09-19T09:15:23;100918.59;;;18.12;100.00
54042;BME280;41156;51.508;5.406;2023-09-19T09:18:23;100908.84;;;18.26;100.00
54042;BME280;41156;51.508;5.406;2023-09-19T09:21:25;100927.75;;;18.33;100.00
54042;BME280;41156;51.508;5.406;2023-09-19T09:24:30;100934.38;;;18.42;100.00
54042;BME280;41156;51.508;5.406;2023-09-19T09:27:31;100932.22;;;18.55;100.00
54042;BME280;41156;51.508;5.406;2023-09-19T09:30:34;100938.00;;;18.63;100.00
54042;BME280;41156;51.508;5.406;2023-09-19T09:33:35;100932.63;;;18.79;100.00
54042;BME280;41156;51.508;5.406;2023-09-19T09:36:37;100917.63;;;18.86;100.00
54042;BME280;41156;51.508;5.406;2023-09-19T09:39:38;100910.28;;;18.97;100.00
54042;BME280;41156;51.508;5.406;2023-09-19T09:42:38;100917.44;;;19.14;100.00
54042;BME280;41156;51.508;5.406;2023-09-19T09:45:41;100910.06;;;19.30;100.00
54042;BME280;41156;51.508;5.406;2023-09-19T09:52:13;100899.66;;;19.37;100.00
54042;BME280;41156;51.508;5.406;2023-09-19T09:55:17;100908.44;;;19.44;100.00
54042;BME280;41156;51.508;5.406;2023-09-19T09:58:20;100894.19;;;19.68;100.00
54042;BME280;41156;51.508;5.406;2023-09-19T10:01:24;100908.97;;;19.67;100.00
54042;BME280;41156;51.508;5.406;2023-09-19T10:04:28;100924.34;;;19.57;100.00
54042;BME280;41156;51.508;5.406;2023-09-19T10:07:36;100912.56;;;19.57;100.00
54042;BME280;41156;51.508;5.406;2023-09-19T10:10:41;100913.91;;;19.59;99.98
54042;BME280;41156;51.508;5.406;2023-09-19T10:13:42;100905.41;;;19.61;100.00
54042;BME280;41156;51.508;5.406;2023-09-19T10:16:48;100915.31;;;19.77;100.00
54042;BME280;41156;51.508;5.406;2023-09-19T10:19:53;100900.47;;;20.04;99.76
54042;BME280;41156;51.508;5.406;2023-09-19T10:22:58;100917.13;;;20.44;100.00
54042;BME280;41156;51.508;5.406;2023-09-19T10:26:01;100892.38;;;20.64;96.82
54042;BME280;41156;51.508;5.406;2023-09-19T10:29:03;100896.16;;;20.79;97.88
54042;BME280;41156;51.508;5.406;2023-09-19T10:32:08;100904.66;;;20.82;96.57
54042;BME280;41156;51.508;5.406;2023-09-19T10:35:11;100906.28;;;20.88;94.59
54042;BME280;41156;51.508;5.406;2023-09-19T10:38:14;100914.69;;;21.02;95.32
54042;BME280;41156;51.508;5.406;2023-09-19T10:41:19;100892.63;;;21.18;94.27
54042;BME280;41156;51.508;5.406;2023-09-19T10:44:25;100895.88;;;21.25;95.04
54042;BME280;41156;51.508;5.406;2023-09-19T10:47:26;100906.84;;;21.30;93.61
54042;BME280;41156;51.508;5.406;2023-09-19T10:50:30;100918.28;;;21.42;93.47
54042;BME280;41156;51.508;5.406;2023-09-19T10:53:57;100890.22;;;21.46;89.96
54042;BME280;41156;51.508;5.406;2023-09-19T10:57:01;100888.50;;;21.20;92.46
54042;BME280;41156;51.508;5.406;2023-09-19T11:00:06;100894.03;;;21.15;91.98
54042;BME280;41156;51.508;5.406;2023-09-19T11:03:26;100889.59;;;21.19;92.89
54042;BME280;41156;51.508;5.406;2023-09-19T11:06:30;100889.84;;;21.23;92.49
54042;BME280;41156;51.508;5.406;2023-09-19T11:18:57;100849.28;;;21.44;89.43
54042;BME280;41156;51.508;5.406;2023-09-19T11:21:58;100863.03;;;21.44;88.12
54042;BME280;41156;51.508;5.406;2023-09-19T11:28:31;100865.34;;;21.66;83.53
54042;BME280;41156;51.508;5.406;2023-09-19T11:31:42;100854.22;;;21.76;84.07
54042;BME280;41156;51.508;5.406;2023-09-19T11:34:45;100854.44;;;21.85;84.41
54042;BME280;41156;51.508;5.406;2023-09-19T11:44:33;100823.47;;;22.23;79.90
54042;BME280;41156;51.508;5.406;2023-09-19T11:47:34;100815.59;;;22.40;82.88
54042;BME280;41156;51.508;5.406;2023-09-19T11:50:36;100813.72;;;22.54;81.67
54042;BME280;41156;51.508;5.406;2023-09-19T11:53:40;100813.38;;;22.61;81.42
54042;BME280;41156;51.508;5.406;2023-09-19T11:56:41;100812.19;;;22.48;79.16
54042;BME280;41156;51.508;5.406;2023-09-19T11:59:41;100794.81;;;22.29;76.68
54042;BME280;41156;51.508;5.406;2023-09-19T12:02:46;100814.25;;;22.13;78.39
54042;BME280;41156;51.508;5.406;2023-09-19T12:05:47;100808.13;;;22.16;79.36
54042;BME280;41156;51.508;5.406;2023-09-19T12:08:47;100812.75;;;22.21;78.66
54042;BME280;41156;51.508;5.406;2023-09-19T12:11:49;100810.22;;;22.25;78.15
54042;BME280;41156;51.508;5.406;2023-09-19T12:14:50;100807.25;;;22.21;78.43
54042;BME280;41156;51.508;5.406;2023-09-19T12:17:51;100802.09;;;22.14;79.37
54042;BME280;41156;51.508;5.406;2023-09-19T12:20:52;100820.56;;;22.14;79.25
54042;BME280;41156;51.508;5.406;2023-09-19T12:27:03;100811.94;;;21.96;79.13
54042;BME280;41156;51.508;5.406;2023-09-19T12:30:07;100827.00;;;21.80;80.25
54042;BME280;41156;51.508;5.406;2023-09-19T12:33:18;100816.22;;;21.54;80.15
54042;BME280;41156;51.508;5.406;2023-09-19T12:36:23;100831.44;;;21.41;80.23
54042;BME280;41156;51.508;5.406;2023-09-19T12:39:25;100827.50;;;21.18;82.09
54042;BME280;41156;51.508;5.406;2023-09-19T12:42:26;100814.63;;;21.14;83.54
54042;BME280;41156;51.508;5.406;2023-09-19T12:45:33;100808.81;;;21.20;83.87
54042;BME280;41156;51.508;5.406;2023-09-19T12:48:39;100820.19;;;21.38;83.43
54042;BME280;41156;51.508;5.406;2023-09-19T12:51:48;100815.03;;;21.31;82.61
54042;BME280;41156;51.508;5.406;2023-09-19T12:54:48;100800.00;;;21.23;82.39
54042;BME280;41156;51.508;5.406;2023-09-19T13:01:14;100808.88;;;21.44;81.71
54042;BME280;41156;51.508;5.406;2023-09-19T13:04:19;100816.19;;;21.59;82.12
54042;BME280;41156;51.508;5.406;2023-09-19T13:07:39;100827.56;;;21.77;81.29
54042;BME280;41156;51.508;5.406;2023-09-19T13:11:20;100810.72;;;21.84;81.28
54042;BME280;41156;51.508;5.406;2023-09-19T13:14:26;100821.50;;;22.04;80.94
54042;BME280;41156;51.508;5.406;2023-09-19T13:17:46;100821.63;;;21.94;81.07
54042;BME280;41156;51.508;5.406;2023-09-19T13:21:10;100818.78;;;21.75;80.99
54042;BME280;41156;51.508;5.406;2023-09-19T13:24:20;100817.03;;;21.60;82.66
54042;BME280;41156;51.508;5.406;2023-09-19T13:27:21;100814.38;;;21.44;83.44
54042;BME280;41156;51.508;5.406;2023-09-19T13:30:26;100826.91;;;21.21;83.14
54042;BME280;41156;51.508;5.406;2023-09-19T13:33:28;100819.69;;;20.96;83.16
54042;BME280;41156;51.508;5.406;2023-09-19T13:36:29;100818.09;;;20.90;84.27
54042;BME280;41156;51.508;5.406;2023-09-19T13:39:29;100816.38;;;20.99;85.26
54042;BME280;41156;51.508;5.406;2023-09-19T13:42:29;100815.28;;;21.00;84.46
54042;BME280;41156;51.508;5.406;2023-09-19T13:45:30;100821.09;;;20.94;84.45
54042;BME280;41156;51.508;5.406;2023-09-19T13:48:33;100815.91;;;20.87;85.02
54042;BME280;41156;51.508;5.406;2023-09-19T13:51:35;100820.06;;;20.79;84.20
54042;BME280;41156;51.508;5.406;2023-09-19T13:54:35;100829.41;;;20.78;84.51
54042;BME280;41156;51.508;5.406;2023-09-19T13:57:36;100826.97;;;20.72;84.85
54042;BME280;41156;51.508;5.406;2023-09-19T14:00:36;100816.00;;;20.72;85.48
54042;BME280;41156;51.508;5.406;2023-09-19T14:03:36;100806.41;;;20.69;86.17
54042;BME280;41156;51.508;5.406;2023-09-19T14:06:36;100821.28;;;20.58;85.90
54042;BME280;41156;51.508;5.406;2023-09-19T14:09:37;100806.72;;;20.57;86.53
54042;BME280;41156;51.508;5.406;2023-09-19T14:12:38;100800.69;;;20.60;87.01
54042;BME280;41156;51.508;5.406;2023-09-19T14:15:40;100814.66;;;20.69;86.51
54042;BME280;41156;51.508;5.406;2023-09-19T14:18:44;100805.25;;;20.80;87.40
54042;BME280;41156;51.508;5.406;2023-09-19T14:21:45;100801.34;;;20.86;87.40
54042;BME280;41156;51.508;5.406;2023-09-19T14:24:46;100802.41;;;20.96;87.67
54042;BME280;41156;51.508;5.406;2023-09-19T14:27:47;100808.66;;;21.01;87.32
54042;BME280;41156;51.508;5.406;2023-09-19T14:30:48;100813.84;;;21.08;87.37
54042;BME280;41156;51.508;5.406;2023-09-19T14:33:55;100809.47;;;21.07;85.78
54042;BME280;41156;51.508;5.406;2023-09-19T14:36:59;100804.25;;;21.05;87.69
54042;BME280;41156;51.508;5.406;2023-09-19T14:39:59;100809.75;;;21.05;87.80
54042;BME280;41156;51.508;5.406;2023-09-19T14:43:00;100801.50;;;21.05;87.66
54042;BME280;41156;51.508;5.406;2023-09-19T14:46:05;100791.66;;;20.99;87.73
54042;BME280;41156;51.508;5.406;2023-09-19T14:49:10;100796.38;;;20.94;87.79
54042;BME280;41156;51.508;5.406;2023-09-19T14:52:11;100786.28;;;20.84;87.33
54042;BME280;41156;51.508;5.406;2023-09-19T14:55:12;100774.16;;;20.85;88.14
54042;BME280;41156;51.508;5.406;2023-09-19T14:58:15;100784.09;;;20.81;87.71
54042;BME280;41156;51.508;5.406;2023-09-19T15:01:15;100785.22;;;20.75;87.95
54042;BME280;41156;51.508;5.406;2023-09-19T15:04:15;100778.16;;;20.68;88.38
54042;BME280;41156;51.508;5.406;2023-09-19T15:07:16;100779.53;;;20.61;88.17
54042;BME280;41156;51.508;5.406;2023-09-19T15:10:18;100781.47;;;20.65;88.29
54042;BME280;41156;51.508;5.406;2023-09-19T15:13:20;100790.25;;;20.57;87.47
54042;BME280;41156;51.508;5.406;2023-09-19T15:16:20;100799.34;;;20.52;88.43
54042;BME280;41156;51.508;5.406;2023-09-19T15:19:21;100780.13;;;20.52;88.31
54042;BME280;41156;51.508;5.406;2023-09-19T15:22:22;100775.75;;;20.46;88.21
54042;BME280;41156;51.508;5.406;2023-09-19T15:25:22;100782.09;;;20.47;89.70
54042;BME280;41156;51.508;5.406;2023-09-19T15:28:23;100780.16;;;20.47;89.61
54042;BME280;41156;51.508;5.406;2023-09-19T15:31:24;100780.72;;;20.44;89.81
54042;BME280;41156;51.508;5.406;2023-09-19T15:34:24;100767.84;;;20.40;89.92
54042;BME280;41156;51.508;5.406;2023-09-19T15:37:25;100769.00;;;20.33;90.10
54042;BME280;41156;51.508;5.406;2023-09-19T15:40:26;100774.78;;;20.27;89.79
54042;BME280;41156;51.508;5.406;2023-09-19T15:43:27;100772.88;;;20.22;90.21
54042;BME280;41156;51.508;5.406;2023-09-19T15:46:28;100784.44;;;20.14;90.82
54042;BME280;41156;51.508;5.406;2023-09-19T15:49:29;100781.19;;;20.07;90.82
54042;BME280;41156;51.508;5.406;2023-09-19T15:52:29;100782.56;;;19.99;91.44
54042;BME280;41156;51.508;5.406;2023-09-19T15:55:30;100772.97;;;19.96;92.10
54042;BME280;41156;51.508;5.406;2023-09-19T15:58:30;100775.19;;;19.89;92.36
54042;BME280;41156;51.508;5.406;2023-09-19T16:01:31;100774.94;;;19.86;92.63
54042;BME280;41156;51.508;5.406;2023-09-19T16:04:31;100781.50;;;19.85;92.76
54042;BME280;41156;51.508;5.406;2023-09-19T16:07:32;100771.94;;;19.77;92.91
54042;BME280;41156;51.508;5.406;2023-09-19T16:10:36;100776.84;;;19.70;92.81
54042;BME280;41156;51.508;5.406;2023-09-19T16:13:39;100779.59;;;19.65;93.34
54042;BME280;41156;51.508;5.406;2023-09-19T16:16:40;100788.38;;;19.62;94.09
54042;BME280;41156;51.508;5.406;2023-09-19T16:19:41;100779.34;;;19.56;95.17
54042;BME280;41156;51.508;5.406;2023-09-19T16:22:45;100788.13;;;19.53;93.86